Thunder radar more information blitzortung!


Löydät sääaseman tiedot myös:

European Weather Network

Finland Weather Exchange

Weather Underground

AWEKAS



Weather Underground säähistoriasivu

Päivittäin yhteenveto Tammikuu 15, 2017 Yksiköt:  Englantilaiset    Metriset   Molemmat
« Edellinen Päivä
Seuraava Päivä »
Päivittäin Viikoittain Kuukausittain Vuosittain Mukautettu
  Korkea: Matala: Keskiarvo:
Lämpötila: TemperatureC °F -9.9 °F -7.2 °F
Kastepiste: DewpointC °F -10.9 °F -8 °F
Kosteus: Humidity % 92 % 93 %
Tuulen nopeus: WindSpeedKMH mph 0.0 mph 0.3 mph
Tuulenpuuska: WindSpeedGustKMH mph - -
Tuuli:- - SSW
Ilmanpaine: PressurehPa in 1000.6 in -
Sade: 0.0 in    
Historical Graphs
 
 
Taulukkotiedot Tammikuu 15, 2017
Aika Lämpötila Kastepiste Ilmanpaine Tuuli Tuulen nopeus Tuulenpuuska Kosteus Sademäärä (tunneittain)
TemperatureC °F DewpointC °F PressurehPa in Calm     Humidity % HourlyPrecipMM in
00:00 -6.6 °F -7.4 °F 1000.6 in Calm     94 % 0.0 in
00:15 -6.8 °F -7.4 °F 1000.9 in Calm     95 % 0.0 in
00:30 -6.6 °F -7.3 °F 1000.9 in Calm   3.2 mph 95 % 0.0 in
00:45 -6.5 °F -7.2 °F 1000.9 in Calm     95 % 0.0 in
01:00 -6.4 °F -7.1 °F 1000.9 in Calm   3.2 mph 95 % 0.0 in
01:15 -6.5 °F -7.2 °F 1001.2 in Calm   4.8 mph 95 % 0.0 in
01:30 -6.7 °F -7.5 °F 1001.2 in Calm   1.6 mph 94 % 0.0 in
01:45 -6.8 °F -7.6 °F 1001.6 in Calm   3.2 mph 94 % 0.0 in
02:00 -6.9 °F -7.7 °F 1001.6 in Calm     94 % 0.0 in
02:15 -7.0 °F -7.8 °F 1001.6 in Calm   1.6 mph 94 % 0.0 in
02:30 -7.1 °F -7.9 °F 1001.6 in Calm   3.2 mph 94 % 0.0 in
02:45 -7.2 °F -7.8 °F 1001.9 in Calm     95 % 0.0 in
03:00 -7.2 °F -8.0 °F 1001.9 in Calm   3.2 mph 94 % 0.0 in
03:15 -7.3 °F -8.1 °F 1001.9 in Calm   1.6 mph 94 % 0.0 in
03:30 -7.4 °F -8.2 °F 1002.3 in Calm   3.2 mph 94 % 0.0 in
03:45 -7.3 °F -8.1 °F 1002.3 in Calm     94 % 0.0 in
04:00 -7.3 °F -8.1 °F 1002.3 in Calm   4.8 mph 94 % 0.0 in
04:15 -7.4 °F -8.2 °F 1002.3 in Calm     94 % 0.0 in
04:30 -7.3 °F -8.1 °F 1002.3 in Calm     94 % 0.0 in
04:45 -7.3 °F -8.1 °F 1002.3 in Calm   3.2 mph 94 % 0.0 in
05:00 -7.3 °F -8.1 °F 1002.3 in Calm     94 % 0.0 in
05:15 -7.2 °F -7.8 °F 1002.3 in Calm     95 % 0.0 in
05:30 -7.0 °F -7.7 °F 1002.3 in Calm     95 % 0.0 in
05:45 -6.9 °F -7.6 °F 1002.6 in Calm   3.2 mph 95 % 0.0 in
06:00 -6.9 °F -7.6 °F 1002.6 in Calm   4.8 mph 95 % 0.0 in
06:15 -7.0 °F -7.8 °F 1002.9 in Calm     94 % 0.0 in
06:30 -7.1 °F -7.9 °F 1002.9 in Calm   4.8 mph 94 % 0.0 in
06:45 -7.1 °F -7.9 °F 1002.9 in Calm   3.2 mph 94 % 0.0 in
07:00 -7.2 °F -8.0 °F 1002.9 in Calm   3.2 mph 94 % 0.0 in
07:15 -7.2 °F -8.0 °F 1003.3 in Calm   4.8 mph 94 % 0.0 in
07:30 -7.1 °F -7.8 °F 1003.3 in Calm   1.6 mph 95 % 0.0 in
07:45 -7.1 °F -7.7 °F 1003.6 in Calm   3.2 mph 95 % 0.0 in
08:00 -7.2 °F -8.0 °F 1003.6 in Calm   3.2 mph 94 % 0.0 in
08:15 -7.2 °F -8.0 °F 1003.6 in Calm   4.8 mph 94 % 0.0 in
08:30 -7.3 °F -8.1 °F 1003.9 in Calm   1.6 mph 94 % 0.0 in
08:45 -7.3 °F -8.1 °F 1003.9 in Calm   3.2 mph 94 % 0.0 in
09:00 -7.4 °F -8.2 °F 1004.3 in SSW 1.6 mph 6.4 mph 94 % 0.0 in
09:15 -7.4 °F -8.2 °F 1004.3 in Calm     94 % 0.0 in
09:30 -7.4 °F -8.2 °F 1004.6 in SW 1.6 mph 4.8 mph 94 % 0.0 in
09:45 -7.4 °F -8.2 °F 1004.6 in SW 1.6 mph 4.8 mph 94 % 0.0 in
10:00 -7.4 °F -8.2 °F 1005.0 in SW 3.2 mph 6.4 mph 94 % 0.0 in
10:15 -7.4 °F -8.2 °F 1004.6 in SW 1.6 mph 6.4 mph 94 % 0.0 in
10:30 -7.4 °F -8.2 °F 1005.0 in SSW 3.2 mph 6.4 mph 94 % 0.0 in
10:45 -7.4 °F -8.2 °F 1005.0 in Calm   4.8 mph 94 % 0.0 in
11:00 -7.4 °F -8.2 °F 1005.0 in SSW 1.6 mph 4.8 mph 94 % 0.0 in
11:15 -7.3 °F -8.1 °F 1005.3 in Calm   4.8 mph 94 % 0.0 in
11:30 -7.2 °F -7.8 °F 1005.3 in SSW 1.6 mph 3.2 mph 95 % 0.0 in
11:45 -7.1 °F -7.8 °F 1005.3 in SSW 1.6 mph 4.8 mph 95 % 0.0 in
12:00 -7.1 °F -7.9 °F 1005.6 in SSW 1.6 mph 6.4 mph 94 % 0.0 in
12:15 -7.0 °F -7.8 °F 1005.6 in SSW 1.6 mph 4.8 mph 94 % 0.0 in
12:30 -6.9 °F -7.6 °F 1005.6 in Calm   3.2 mph 95 % 0.0 in
12:45 -6.9 °F -7.7 °F 1005.6 in SSW 1.6 mph 6.4 mph 94 % 0.0 in
13:00 -6.9 °F -7.7 °F 1005.6 in SW 1.6 mph 6.4 mph 94 % 0.0 in
13:15 -7.0 °F -7.8 °F 1006.0 in SW 1.6 mph 8.0 mph 94 % 0.0 in
13:30 -7.0 °F -7.8 °F 1006.0 in SW 1.6 mph 4.8 mph 94 % 0.0 in
13:45 -7.0 °F -7.8 °F 1006.0 in SW 1.6 mph 6.4 mph 94 % 0.0 in
14:00 -6.9 °F -7.7 °F 1006.0 in SW 1.6 mph 6.4 mph 94 % 0.0 in
14:15 -6.9 °F -7.7 °F 1006.3 in Calm     94 % 0.0 in
14:30 -6.8 °F -7.6 °F 1006.3 in SW 1.6 mph 4.8 mph 94 % 0.0 in
14:45 -6.7 °F -7.5 °F 1006.3 in Calm   4.8 mph 94 % 0.0 in
15:00 -6.6 °F -7.2 °F 1006.3 in Calm   3.2 mph 95 % 0.0 in
15:15 -6.6 °F -7.4 °F 1006.7 in Calm   1.6 mph 94 % 0.0 in
15:30 -6.8 °F -7.6 °F 1006.7 in Calm     94 % 0.0 in
15:45 -7.1 °F -7.9 °F 1006.7 in Calm     94 % 0.0 in
16:00 -7.4 °F -8.4 °F 1006.7 in Calm     93 % 0.0 in
16:15 -7.7 °F -8.7 °F 1007.0 in Calm   3.2 mph 93 % 0.0 in
16:30 -7.6 °F -8.4 °F 1007.0 in Calm     94 % 0.0 in
16:45 -7.3 °F -7.9 °F 1007.0 in Calm     95 % 0.0 in
17:00 -6.8 °F -7.5 °F 1007.0 in Calm     95 % 0.0 in
17:15 -6.7 °F -7.5 °F 1007.3 in Calm     94 % 0.0 in
17:30 -6.6 °F -7.3 °F 1007.3 in Calm     95 % 0.0 in
17:45 -6.4 °F -7.1 °F 1007.3 in Calm   3.2 mph 95 % 0.0 in
18:00 -6.2 °F -6.9 °F 1007.3 in Calm     95 % 0.0 in
18:15 -6.2 °F -6.9 °F 1007.7 in Calm   1.6 mph 95 % 0.0 in
18:30 -6.1 °F -6.8 °F 1007.7 in Calm     95 % 0.0 in
18:45 -6.3 °F -7.1 °F 1007.7 in Calm     94 % 0.0 in
19:00 -6.4 °F -7.2 °F 1007.7 in Calm   4.8 mph 94 % 0.0 in
19:15 -6.9 °F -7.8 °F 1008.0 in Calm     93 % 0.0 in
19:30 -6.9 °F -7.7 °F 1008.0 in Calm     94 % 0.0 in
19:45 -7.2 °F -8.1 °F 1008.0 in Calm     93 % 0.0 in
20:00 -7.3 °F -8.3 °F 1008.4 in Calm     93 % 0.0 in
20:15 -7.6 °F -8.5 °F 1008.4 in Calm     93 % 0.0 in
20:30 -7.6 °F -8.4 °F 1008.4 in Calm     94 % 0.0 in
20:45 -7.6 °F -8.5 °F 1008.4 in Calm     93 % 0.0 in
21:00 -7.8 °F -8.8 °F 1009.0 in Calm   1.6 mph 93 % 0.0 in
21:15 -8.2 °F -9.3 °F 1009.0 in Calm     92 % 0.0 in
21:30 -8.3 °F -9.3 °F 1009.0 in Calm     93 % 0.0 in
21:45 -8.4 °F -9.3 °F 1009.0 in Calm     93 % 0.0 in
22:00 -8.7 °F -9.6 °F 1009.4 in Calm   3.2 mph 93 % 0.0 in
22:15 -8.5 °F -9.4 °F 1009.7 in Calm     93 % 0.0 in
22:30 -8.8 °F -9.9 °F 1009.7 in Calm     92 % 0.0 in
22:45 -9.1 °F -10.1 °F 1010.0 in Calm     92 % 0.0 in
23:00 -9.4 °F -10.5 °F 1010.0 in Calm     92 % 0.0 in
23:15 -9.7 °F -10.8 °F 1010.4 in Calm     92 % 0.0 in
23:30 -9.9 °F -10.9 °F 1010.7 in Calm     92 % 0.0 in
23:45 -9.9 °F -10.9 °F 1010.7 in Calm     92 % 0.0 in
Esan sääasema
Terveisin Weather Underground - 2.75 mb

Alkuperäinen skripti  Jim McMurry - jmcmurry@mwt.net Sovitettu myös templatelle  Wim van der Kuil - Leuven-Template.eu

Laitteet joita käytämme:

Sääasema
Davis VP2

Sääasemaohjelma
Cumulus

Sääaseman tietokone
Asus EeePC

Palveluntarjoaja
Suncomet

Davis VP2

Cumulus

Asus EeePC

Suncomet